createdAt,value
2019-02-25T00:00:24.686Z,11.70
2019-02-25T00:02:53.560Z,11.00
2019-02-25T00:05:22.407Z,11.17
2019-02-25T00:07:51.255Z,9.90
2019-02-25T00:10:20.042Z,10.10
2019-02-25T00:12:48.818Z,10.37
2019-02-25T00:15:17.604Z,10.33
2019-02-25T00:17:46.368Z,10.67
2019-02-25T00:20:15.250Z,10.63
2019-02-25T00:22:44.041Z,9.30
2019-02-25T00:25:13.572Z,10.20
2019-02-25T00:27:42.346Z,10.87
2019-02-25T00:30:15.392Z,11.07
2019-02-25T00:32:44.250Z,10.27
2019-02-25T00:35:13.368Z,11.00
2019-02-25T00:37:42.146Z,11.07
2019-02-25T00:40:12.788Z,11.13
2019-02-25T00:42:41.562Z,10.80
2019-02-25T00:45:19.280Z,11.37
2019-02-25T00:47:48.066Z,11.70
2019-02-25T00:50:19.602Z,11.37
2019-02-25T00:52:48.452Z,11.47
2019-02-25T00:55:17.533Z,11.10
2019-02-25T00:57:46.395Z,11.27
2019-02-25T01:00:25.461Z,10.60
2019-02-25T01:02:54.235Z,11.23
2019-02-25T01:05:23.060Z,10.30
2019-02-25T01:07:51.839Z,12.57
2019-02-25T01:10:21.009Z,11.73
2019-02-25T01:12:49.847Z,18.10
2019-02-25T01:15:18.624Z,19.67
2019-02-25T01:17:47.377Z,26.83
2019-02-25T01:20:19.164Z,12.23
2019-02-25T01:22:47.930Z,13.53
2019-02-25T01:25:19.687Z,16.77
2019-02-25T01:27:48.477Z,13.37
2019-02-25T01:30:21.210Z,31.97
2019-02-25T01:32:50.006Z,15.10
2019-02-25T01:35:19.398Z,12.43
2019-02-25T01:37:48.167Z,11.70
2019-02-25T01:40:17.024Z,12.30
2019-02-25T01:42:45.871Z,11.23
2019-02-25T01:45:16.581Z,11.70
2019-02-25T01:47:45.372Z,11.83
2019-02-25T01:50:14.353Z,12.00
2019-02-25T01:52:43.133Z,11.27
2019-02-25T01:55:15.232Z,11.17
2019-02-25T01:57:44.225Z,11.20
2019-02-25T02:00:17.756Z,13.17
2019-02-25T02:02:46.611Z,11.40
2019-02-25T02:05:15.451Z,12.87
2019-02-25T02:07:44.237Z,12.27
2019-02-25T02:10:14.981Z,14.23
2019-02-25T02:12:43.857Z,13.30
2019-02-25T02:15:17.638Z,13.63
2019-02-25T02:17:46.420Z,12.77
2019-02-25T02:20:16.560Z,12.63
2019-02-25T02:22:45.346Z,12.00
2019-02-25T02:25:14.699Z,12.83
2019-02-25T02:27:43.461Z,11.07
2019-02-25T02:30:17.831Z,11.93
2019-02-25T02:32:46.615Z,33.60
2019-02-25T02:35:15.370Z,16.90
2019-02-25T02:37:44.135Z,13.50
2019-02-25T02:40:13.785Z,14.20
2019-02-25T02:42:57.553Z,14.30
2019-02-25T02:45:32.033Z,15.57
2019-02-25T02:48:09.401Z,28.27
2019-02-25T02:50:38.236Z,18.40
2019-02-25T02:53:07.096Z,16.97
2019-02-25T02:55:35.882Z,13.53
2019-02-25T02:58:04.721Z,12.87
2019-02-25T03:00:33.562Z,19.50
2019-02-25T03:03:02.355Z,26.17
2019-02-25T03:05:31.132Z,20.77
2019-02-25T03:07:59.891Z,16.97
2019-02-25T03:10:28.674Z,12.00
2019-02-25T03:12:57.519Z,13.43
2019-02-25T03:15:26.287Z,13.30
2019-02-25T03:17:55.134Z,16.43
2019-02-25T03:20:23.903Z,14.50
2019-02-25T03:22:52.741Z,16.23
2019-02-25T03:25:21.587Z,17.60
2019-02-25T03:27:50.360Z,17.90
2019-02-25T03:30:21.404Z,18.57
2019-02-25T03:32:50.299Z,19.80
2019-02-25T03:35:19.079Z,18.47
2019-02-25T03:37:47.897Z,18.73
2019-02-25T03:40:19.040Z,19.77
2019-02-25T03:42:47.815Z,19.00
2019-02-25T03:45:18.733Z,16.63
2019-02-25T03:47:47.500Z,16.47
2019-02-25T03:50:16.357Z,16.20
2019-02-25T03:52:45.138Z,15.03
2019-02-25T03:55:18.131Z,15.00
2019-02-25T03:57:47.067Z,16.17
2019-02-25T04:00:20.933Z,16.97
2019-02-25T04:02:49.673Z,15.23
2019-02-25T04:05:18.621Z,13.97
2019-02-25T04:07:47.454Z,14.67
2019-02-25T04:10:16.338Z,15.27
2019-02-25T04:12:45.099Z,15.73
2019-02-25T04:15:17.357Z,14.37
2019-02-25T04:17:46.191Z,14.43
2019-02-25T04:20:16.383Z,13.80
2019-02-25T04:22:45.160Z,14.00
2019-02-25T04:25:14.064Z,13.30
2019-02-25T04:27:42.828Z,13.67
2019-02-25T04:30:17.640Z,13.90
2019-02-25T04:32:46.376Z,14.70
2019-02-25T04:35:15.234Z,15.10
2019-02-25T04:37:44.076Z,17.13
2019-02-25T04:40:13.982Z,15.43
2019-02-25T04:42:42.789Z,15.50
2019-02-25T04:45:19.272Z,17.20
2019-02-25T04:47:48.143Z,16.70
2019-02-25T04:50:16.905Z,14.80
2019-02-25T04:52:45.677Z,15.23
2019-02-25T04:55:15.322Z,16.27
2019-02-25T04:57:44.129Z,13.73
2019-02-25T05:00:23.621Z,15.70
2019-02-25T05:02:52.438Z,18.67
2019-02-25T05:05:21.213Z,12.93
2019-02-25T05:07:50.007Z,13.20
2019-02-25T05:10:18.883Z,13.87
2019-02-25T05:13:04.321Z,14.40
2019-02-25T05:15:34.571Z,14.67
2019-02-25T05:18:03.446Z,52.27
2019-02-25T05:20:32.226Z,16.77
2019-02-25T05:23:01.098Z,15.90
2019-02-25T05:25:29.953Z,15.67
2019-02-25T05:27:58.794Z,14.63
2019-02-25T05:30:27.636Z,15.27
2019-02-25T05:32:56.564Z,15.40
2019-02-25T05:35:25.377Z,15.90
2019-02-25T05:37:54.171Z,13.97
2019-02-25T05:40:22.926Z,16.00
2019-02-25T05:42:51.783Z,16.03
2019-02-25T05:45:20.626Z,15.57
2019-02-25T05:47:49.479Z,16.13
2019-02-25T05:50:22.240Z,14.67
2019-02-25T05:52:51.008Z,20.03
2019-02-25T05:55:19.897Z,17.33
2019-02-25T05:57:48.689Z,25.37
2019-02-25T06:00:21.357Z,21.80
2019-02-25T06:02:50.213Z,23.67
2019-02-25T06:05:19.069Z,25.17
2019-02-25T06:07:47.923Z,26.13
2019-02-25T06:10:16.695Z,19.60
2019-02-25T06:12:45.486Z,26.60
2019-02-25T06:15:20.193Z,20.37
2019-02-25T06:17:48.970Z,29.67
2019-02-25T06:20:18.152Z,28.07
2019-02-25T06:22:46.934Z,20.90
2019-02-25T06:25:16.780Z,41.90
2019-02-25T06:27:45.657Z,21.17
2019-02-25T06:30:18.757Z,20.60
2019-02-25T06:32:47.548Z,18.33
2019-02-25T06:35:16.323Z,29.60
2019-02-25T06:37:45.093Z,16.37
2019-02-25T06:40:16.159Z,18.70
2019-02-25T06:42:45.183Z,24.70
2019-02-25T06:45:22.127Z,16.97
2019-02-25T06:47:50.923Z,17.27
2019-02-25T06:50:19.782Z,16.70
2019-02-25T06:52:48.627Z,15.57
2019-02-25T06:55:17.703Z,15.30
2019-02-25T06:57:46.479Z,20.90
2019-02-25T07:00:19.420Z,17.77
2019-02-25T07:02:48.253Z,19.63
2019-02-25T07:05:33.683Z,16.13
2019-02-25T07:08:18.882Z,16.07
2019-02-25T07:10:55.257Z,18.10
2019-02-25T07:13:25.661Z,19.43
2019-02-25T07:15:56.067Z,16.50
2019-02-25T07:18:38.078Z,19.83
2019-02-25T07:21:26.643Z,20.37
2019-02-25T07:24:08.783Z,15.57
2019-02-25T07:26:47.751Z,13.70
2019-02-25T07:29:27.140Z,14.60
2019-02-25T07:32:15.717Z,14.43
2019-02-25T07:34:46.130Z,15.90
2019-02-25T07:37:19.624Z,16.87
2019-02-25T07:39:52.764Z,14.97
2019-02-25T07:42:35.255Z,15.63
2019-02-25T07:45:21.873Z,15.73
2019-02-25T07:47:57.971Z,18.27
2019-02-25T07:50:31.101Z,17.27
2019-02-25T07:53:16.381Z,14.47
2019-02-25T07:56:04.698Z,15.43
2019-02-25T07:58:38.056Z,15.03
2019-02-25T08:01:26.368Z,17.33
2019-02-25T08:04:05.532Z,13.30
2019-02-25T08:06:38.760Z,12.20
2019-02-25T08:09:25.729Z,12.77
2019-02-25T08:11:56.143Z,15.00
2019-02-25T08:14:29.293Z,14.27
2019-02-25T08:16:59.722Z,14.07
2019-02-25T08:19:30.119Z,15.80
2019-02-25T08:22:16.459Z,13.13
2019-02-25T08:25:01.682Z,12.83
2019-02-25T08:27:41.248Z,11.13
2019-02-25T08:30:13.721Z,11.87
2019-02-25T08:32:50.282Z,12.30
2019-02-25T08:35:39.714Z,12.87
2019-02-25T08:38:09.893Z,14.30
2019-02-25T08:40:52.007Z,12.13
2019-02-25T08:43:40.553Z,10.97
2019-02-25T08:46:19.757Z,11.37
2019-02-25T08:49:06.326Z,12.63
2019-02-25T08:51:35.161Z,12.27
2019-02-25T08:54:03.938Z,10.50
2019-02-25T08:56:32.717Z,10.53
2019-02-25T08:59:01.490Z,12.43
2019-02-25T09:01:30.334Z,10.97
2019-02-25T09:03:59.112Z,11.63
2019-02-25T09:06:27.950Z,12.53
2019-02-25T09:08:56.831Z,11.13
2019-02-25T09:11:25.610Z,12.50
2019-02-25T09:13:54.377Z,13.17
2019-02-25T09:16:23.164Z,16.30
2019-02-25T09:18:52.009Z,14.53
2019-02-25T09:21:20.788Z,13.40
2019-02-25T09:23:49.579Z,15.93
2019-02-25T09:26:18.346Z,18.23
2019-02-25T09:28:47.130Z,14.10
2019-02-25T09:31:15.963Z,19.33
2019-02-25T09:33:44.755Z,19.07
2019-02-25T09:36:13.581Z,17.20
2019-02-25T09:38:42.426Z,12.83
2019-02-25T09:41:11.256Z,13.70
2019-02-25T09:43:40.091Z,13.23
2019-02-25T09:46:08.860Z,14.10
2019-02-25T09:48:37.622Z,13.40
2019-02-25T09:51:06.376Z,16.90
2019-02-25T09:53:35.222Z,17.67
2019-02-25T09:56:04.056Z,15.23
2019-02-25T09:58:32.933Z,14.27
2019-02-25T10:01:01.870Z,13.93
2019-02-25T10:03:30.640Z,11.60
2019-02-25T10:05:59.478Z,13.03
2019-02-25T10:08:28.253Z,15.10
2019-02-25T10:10:57.104Z,20.07
2019-02-25T10:13:25.958Z,17.27
2019-02-25T10:15:54.806Z,12.80
2019-02-25T10:18:23.649Z,15.40
2019-02-25T10:20:52.431Z,18.10
2019-02-25T10:23:21.219Z,15.10
2019-02-25T10:25:49.974Z,15.47
2019-02-25T10:28:18.747Z,11.63
2019-02-25T10:30:52.756Z,13.67
2019-02-25T10:33:18.086Z,10.93
2019-02-25T10:35:46.934Z,14.23
2019-02-25T10:38:15.774Z,12.93
2019-02-25T10:40:45.402Z,11.27
2019-02-25T10:43:15.036Z,32.10
2019-02-25T10:45:45.431Z,13.93
2019-02-25T10:48:15.207Z,12.30
2019-02-25T10:50:44.811Z,11.30
2019-02-25T10:53:15.555Z,12.50
2019-02-25T10:55:48.835Z,14.57
2019-02-25T10:58:17.480Z,11.10
2019-02-25T11:00:46.245Z,27.13
2019-02-25T11:03:15.317Z,71.03
2019-02-25T11:05:45.581Z,14.90
2019-02-25T11:08:15.992Z,13.80
2019-02-25T11:10:50.734Z,10.23
2019-02-25T11:13:19.698Z,13.33
2019-02-25T11:15:48.827Z,13.30
2019-02-25T11:18:19.825Z,12.30
2019-02-25T11:20:48.162Z,12.53
2019-02-25T11:23:19.215Z,13.60
2019-02-25T11:25:47.510Z,10.93
2019-02-25T11:28:25.094Z,15.80
2019-02-25T11:30:47.619Z,9.13
2019-02-25T11:33:17.422Z,11.87
2019-02-25T11:35:48.057Z,13.37
2019-02-25T11:38:16.932Z,13.57
2019-02-25T11:40:45.792Z,17.80
2019-02-25T11:43:16.624Z,17.03
2019-02-25T11:45:45.126Z,14.00
2019-02-25T11:48:13.893Z,15.27
2019-02-25T11:50:44.767Z,11.77
2019-02-25T11:53:13.238Z,12.50
2019-02-25T11:55:42.027Z,24.63
2019-02-25T11:58:10.879Z,21.57
2019-02-25T12:00:39.955Z,11.10
2019-02-25T12:03:08.758Z,10.37
2019-02-25T12:05:37.524Z,12.43
2019-02-25T12:08:06.307Z,11.50
2019-02-25T12:10:35.099Z,15.37
2019-02-25T12:13:03.883Z,12.80
2019-02-25T12:15:32.747Z,11.57
2019-02-25T12:18:01.597Z,9.87
2019-02-25T12:20:30.464Z,16.60
2019-02-25T12:22:59.293Z,12.57
2019-02-25T12:25:28.085Z,9.80
2019-02-25T12:27:56.924Z,11.07
2019-02-25T12:30:27.736Z,11.77
2019-02-25T12:32:56.513Z,9.70
2019-02-25T12:35:25.343Z,10.67
2019-02-25T12:37:54.127Z,11.93
2019-02-25T12:40:22.901Z,17.50
2019-02-25T12:42:51.745Z,13.20
2019-02-25T12:45:20.527Z,12.30
2019-02-25T12:47:49.305Z,13.70
2019-02-25T12:50:19.812Z,13.53
2019-02-25T12:52:48.682Z,12.03
2019-02-25T12:55:18.255Z,12.27
2019-02-25T12:57:47.023Z,11.90
2019-02-25T13:00:22.411Z,13.97
2019-02-25T13:02:51.186Z,40.83
2019-02-25T13:05:26.636Z,12.33
2019-02-25T13:07:55.400Z,14.00
2019-02-25T13:10:24.179Z,16.30
2019-02-25T13:12:53.029Z,15.57
2019-02-25T13:15:22.808Z,16.43
2019-02-25T13:17:51.656Z,11.30
2019-02-25T13:20:20.509Z,13.57
2019-02-25T13:22:49.306Z,22.43
2019-02-25T13:25:23.564Z,16.63
2019-02-25T13:27:54.134Z,13.90
2019-02-25T13:30:22.843Z,18.60
2019-02-25T13:32:51.692Z,90.93
2019-02-25T13:35:20.546Z,16.00
2019-02-25T13:37:49.305Z,11.10
2019-02-25T13:40:18.591Z,11.57
2019-02-25T13:42:47.365Z,12.57
2019-02-25T13:45:19.158Z,11.27
2019-02-25T13:47:48.003Z,12.43
2019-02-25T13:50:17.602Z,19.07
2019-02-25T13:52:48.552Z,13.23
2019-02-25T13:55:21.135Z,14.83
2019-02-25T13:57:49.927Z,13.70
2019-02-25T14:00:23.137Z,13.97
2019-02-25T14:02:52.089Z,17.47
2019-02-25T14:05:20.980Z,15.90
2019-02-25T14:07:49.816Z,15.77
2019-02-25T14:10:19.366Z,19.40
2019-02-25T14:12:48.252Z,15.17
2019-02-25T14:15:24.796Z,15.33
2019-02-25T14:17:53.648Z,15.60
2019-02-25T14:20:23.329Z,13.83
2019-02-25T14:22:52.094Z,14.70
2019-02-25T14:25:30.691Z,18.33
2019-02-25T14:27:59.592Z,18.27
2019-02-25T14:30:32.701Z,20.30
2019-02-25T14:32:59.464Z,30.60
2019-02-25T14:35:32.431Z,28.50
2019-02-25T14:38:07.576Z,14.57
2019-02-25T14:40:39.318Z,17.43
2019-02-25T14:43:05.973Z,13.87
2019-02-25T14:45:34.917Z,14.43
2019-02-25T14:48:08.127Z,16.90
2019-02-25T14:50:36.114Z,19.37
2019-02-25T14:53:08.405Z,18.50
2019-02-25T14:55:36.134Z,21.10
2019-02-25T14:58:07.284Z,21.47
2019-02-25T15:00:38.051Z,18.73
2019-02-25T15:03:06.045Z,22.23
2019-02-25T15:05:34.885Z,17.73
2019-02-25T15:08:03.747Z,18.30
2019-02-25T15:10:33.966Z,18.83
2019-02-25T15:13:04.104Z,19.37
2019-02-25T15:15:34.831Z,17.27
2019-02-25T15:18:03.679Z,19.20
2019-02-25T15:20:32.829Z,20.17
2019-02-25T15:23:01.602Z,20.00
2019-02-25T15:25:31.634Z,19.00
2019-02-25T15:28:00.953Z,32.23
2019-02-25T15:30:31.072Z,28.97
2019-02-25T15:33:00.446Z,21.70
2019-02-25T15:35:32.335Z,24.90
2019-02-25T15:38:00.732Z,16.87
2019-02-25T15:40:29.745Z,16.20
2019-02-25T15:43:17.742Z,20.30
2019-02-25T15:45:45.676Z,22.27
2019-02-25T15:48:24.121Z,26.57
2019-02-25T15:50:58.586Z,26.00
2019-02-25T15:53:27.921Z,25.17
2019-02-25T15:55:59.263Z,22.73
2019-02-25T15:58:27.496Z,22.00
2019-02-25T16:00:56.380Z,22.23
2019-02-25T16:03:25.631Z,24.97
2019-02-25T16:05:57.922Z,28.60
2019-02-25T16:08:26.055Z,26.80
2019-02-25T16:10:57.831Z,31.50
2019-02-25T16:13:26.292Z,31.13
2019-02-25T16:15:55.143Z,32.13
2019-02-25T16:18:25.304Z,28.83
2019-02-25T16:20:54.530Z,22.10
2019-02-25T16:23:25.738Z,21.37
2019-02-25T16:25:54.893Z,22.10
2019-02-25T16:28:25.162Z,21.67
2019-02-25T16:30:53.986Z,21.17
2019-02-25T16:33:24.066Z,22.17
2019-02-25T16:35:53.409Z,23.33
2019-02-25T16:38:24.890Z,20.40
2019-02-25T16:40:54.653Z,21.37
2019-02-25T16:43:23.167Z,20.43
2019-02-25T16:45:52.412Z,23.87
2019-02-25T16:48:24.265Z,22.00
2019-02-25T16:50:51.785Z,20.10
2019-02-25T16:53:20.702Z,20.87
2019-02-25T16:55:51.438Z,21.10
2019-02-25T16:58:20.170Z,22.90
2019-02-25T17:00:49.211Z,32.83
2019-02-25T17:03:18.504Z,35.60
2019-02-25T17:05:48.543Z,37.40
2019-02-25T17:08:19.450Z,30.00
2019-02-25T17:10:49.605Z,24.67
2019-02-25T17:13:18.795Z,24.17
2019-02-25T17:15:47.657Z,23.77
2019-02-25T17:18:16.545Z,29.23
2019-02-25T17:20:49.729Z,29.57
2019-02-25T17:23:15.951Z,25.57
2019-02-25T17:25:44.842Z,27.63
2019-02-25T17:28:17.032Z,24.97
2019-02-25T17:30:45.578Z,23.87
2019-02-25T17:33:14.939Z,22.73
2019-02-25T17:35:45.231Z,21.73
2019-02-25T17:38:14.315Z,21.17
2019-02-25T17:40:43.085Z,22.03
2019-02-25T17:43:14.012Z,24.37
2019-02-25T17:45:42.493Z,26.03
2019-02-25T17:48:13.460Z,23.87
2019-02-25T17:50:41.857Z,25.53
2019-02-25T17:53:10.671Z,28.70
2019-02-25T17:55:39.755Z,29.23
2019-02-25T17:58:08.861Z,30.83
2019-02-25T18:00:43.342Z,29.00
2019-02-25T18:03:12.194Z,31.80
2019-02-25T18:05:43.268Z,30.00
2019-02-25T18:08:14.588Z,31.90
2019-02-25T18:10:43.655Z,30.63
2019-02-25T18:13:13.501Z,31.10
2019-02-25T18:15:42.618Z,31.43
2019-02-25T18:18:12.531Z,28.63
2019-02-25T18:20:42.046Z,31.27
2019-02-25T18:23:11.077Z,28.20
2019-02-25T18:25:40.213Z,27.67
2019-02-25T18:28:10.819Z,28.17
2019-02-25T18:30:39.786Z,25.93
2019-02-25T18:33:09.352Z,22.43
2019-02-25T18:35:40.600Z,18.53
2019-02-25T18:38:09.620Z,16.83
2019-02-25T18:40:42.924Z,16.60
2019-02-25T18:43:09.487Z,20.97
2019-02-25T18:45:40.429Z,28.17
2019-02-25T18:48:08.934Z,29.80
2019-02-25T18:50:39.429Z,22.20
2019-02-25T18:53:09.954Z,20.17
2019-02-25T18:55:38.817Z,18.60
2019-02-25T18:58:11.927Z,17.70
2019-02-25T19:00:43.018Z,18.80
2019-02-25T19:03:12.762Z,20.17
2019-02-25T19:05:42.031Z,22.63
2019-02-25T19:08:17.194Z,24.53
2019-02-25T19:10:47.999Z,26.13
2019-02-25T19:13:20.123Z,28.17
2019-02-25T19:15:50.271Z,27.57
2019-02-25T19:18:19.320Z,24.87
2019-02-25T19:20:48.337Z,23.23
2019-02-25T19:23:17.387Z,23.03
2019-02-25T19:25:46.392Z,25.53
2019-02-25T19:28:18.714Z,23.87
2019-02-25T19:30:46.035Z,21.93
2019-02-25T19:33:19.342Z,22.63
2019-02-25T19:35:45.715Z,23.17
2019-02-25T19:38:15.858Z,22.57
2019-02-25T19:40:47.423Z,23.43
2019-02-25T19:43:16.171Z,26.97
2019-02-25T19:45:45.522Z,29.77
2019-02-25T19:48:14.389Z,30.27
2019-02-25T19:50:51.055Z,28.83
2019-02-25T19:53:15.340Z,29.13
2019-02-25T19:55:46.174Z,30.70
2019-02-25T19:58:14.906Z,27.10
2019-02-25T20:00:44.519Z,23.57
2019-02-25T20:03:13.535Z,22.97
2019-02-25T20:05:44.208Z,24.70
2019-02-25T20:08:13.884Z,24.93
2019-02-25T20:10:42.738Z,24.43
2019-02-25T20:13:11.580Z,23.10
2019-02-25T20:15:42.416Z,23.30
2019-02-25T20:18:13.990Z,22.90
2019-02-25T20:20:43.584Z,20.47
2019-02-25T20:23:12.496Z,20.23
2019-02-25T20:25:44.441Z,21.13
2019-02-25T20:28:12.063Z,25.03
2019-02-25T20:30:42.874Z,26.47
2019-02-25T20:33:11.472Z,32.50
2019-02-25T20:35:40.332Z,30.43
2019-02-25T20:38:09.218Z,33.70
2019-02-25T20:40:38.069Z,51.43
2019-02-25T20:43:07.144Z,39.23
2019-02-25T20:45:36.235Z,48.57
2019-02-25T20:48:07.107Z,40.17
2019-02-25T20:50:35.947Z,38.03
2019-02-25T20:53:06.517Z,44.90
2019-02-25T20:55:36.385Z,47.77
2019-02-25T20:58:05.551Z,47.07
2019-02-25T21:00:36.931Z,40.97
2019-02-25T21:03:05.450Z,44.17
2019-02-25T21:05:34.219Z,37.57
2019-02-25T21:08:03.072Z,39.67
2019-02-25T21:10:35.022Z,36.67
2019-02-25T21:13:02.800Z,35.77
2019-02-25T21:15:33.497Z,39.07
2019-02-25T21:18:04.702Z,34.83
2019-02-25T21:20:32.703Z,40.43
2019-02-25T21:23:05.287Z,40.63
2019-02-25T21:25:33.783Z,40.50
2019-02-25T21:28:04.896Z,36.87
2019-02-25T21:30:37.092Z,75.93
2019-02-25T21:33:03.788Z,51.97
2019-02-25T21:35:36.645Z,26.83
2019-02-25T21:38:03.447Z,29.17
2019-02-25T21:40:32.584Z,31.13
2019-02-25T21:43:01.433Z,30.27
2019-02-25T21:45:32.295Z,27.33
2019-02-25T21:48:01.995Z,25.07
2019-02-25T21:50:33.599Z,25.10
2019-02-25T21:53:01.868Z,24.87
2019-02-25T21:55:32.643Z,27.90
2019-02-25T21:58:04.398Z,25.37
2019-02-25T22:00:34.842Z,25.67
2019-02-25T22:03:06.004Z,32.33
2019-02-25T22:05:32.823Z,27.47
2019-02-25T22:08:03.658Z,35.97
2019-02-25T22:10:34.071Z,33.23
2019-02-25T22:13:06.756Z,28.40
2019-02-25T22:15:34.021Z,34.27
2019-02-25T22:18:04.285Z,27.83
2019-02-25T22:20:37.629Z,26.93
2019-02-25T22:23:05.782Z,26.03
2019-02-25T22:25:35.219Z,28.80
2019-02-25T22:28:05.445Z,30.00
2019-02-25T22:30:34.624Z,29.70
2019-02-25T22:33:04.813Z,28.33
2019-02-25T22:35:37.356Z,31.43
2019-02-25T22:38:04.474Z,35.53
2019-02-25T22:40:34.915Z,30.37
2019-02-25T22:43:03.756Z,34.23
2019-02-25T22:45:33.107Z,64.13
2019-02-25T22:48:03.155Z,39.63
2019-02-25T22:50:33.917Z,39.93
2019-02-25T22:53:04.221Z,37.57
2019-02-25T22:55:36.819Z,27.03
2019-02-25T22:58:03.568Z,21.73
2019-02-25T23:00:44.601Z,21.27
2019-02-25T23:03:15.490Z,20.23
2019-02-25T23:05:45.983Z,21.80
2019-02-25T23:08:15.629Z,21.73
2019-02-25T23:10:46.997Z,21.47
2019-02-25T23:13:15.793Z,19.83
2019-02-25T23:15:46.461Z,20.33
2019-02-25T23:18:16.802Z,18.93
2019-02-25T23:20:45.692Z,17.70
2019-02-25T23:23:14.495Z,17.50
2019-02-25T23:25:46.814Z,18.17
2019-02-25T23:28:13.814Z,17.73
2019-02-25T23:30:42.592Z,17.60
2019-02-25T23:33:11.988Z,17.83
2019-02-25T23:35:44.659Z,16.10
2019-02-25T23:38:12.452Z,14.73
2019-02-25T23:40:42.884Z,15.80
2019-02-25T23:43:12.014Z,16.23
2019-02-25T23:45:44.197Z,16.23
2019-02-25T23:48:12.910Z,16.03
2019-02-25T23:50:41.689Z,15.37
2019-02-25T23:53:10.453Z,16.33
2019-02-25T23:55:43.121Z,15.27
2019-02-25T23:58:12.330Z,14.40
